createdAt,value
2023-04-15T00:00:33.233Z,27.80
2023-04-15T00:01:33.255Z,27.81
2023-04-15T00:02:33.302Z,27.81
2023-04-15T00:03:33.485Z,27.80
2023-04-15T00:04:33.374Z,27.80
2023-04-15T00:05:33.382Z,27.79
2023-04-15T00:06:33.477Z,27.79
2023-04-15T00:07:33.475Z,27.78
2023-04-15T00:08:33.501Z,27.78
2023-04-15T00:09:33.572Z,27.76
2023-04-15T00:10:33.567Z,27.81
2023-04-15T00:11:33.639Z,27.78
2023-04-15T00:12:33.707Z,27.76
2023-04-15T00:13:33.687Z,27.78
2023-04-15T00:14:33.737Z,27.77
2023-04-15T00:15:33.802Z,27.78
2023-04-15T00:16:33.848Z,27.79
2023-04-15T00:17:33.991Z,27.78
2023-04-15T00:18:33.934Z,27.79
2023-04-15T00:19:33.937Z,27.80
2023-04-15T00:20:33.974Z,27.81
2023-04-15T00:21:34.031Z,27.80
2023-04-15T00:22:34.053Z,27.81
2023-04-15T00:23:34.098Z,27.80
2023-04-15T00:24:34.195Z,27.82
2023-04-15T00:25:34.180Z,27.80
2023-04-15T00:26:34.230Z,27.79
2023-04-15T00:27:34.308Z,27.82
2023-04-15T00:28:34.348Z,27.81
2023-04-15T00:29:34.364Z,27.82
2023-04-15T00:30:34.466Z,27.81
2023-04-15T00:31:34.449Z,27.83
2023-04-15T00:32:34.541Z,27.82
2023-04-15T00:33:34.579Z,27.81
2023-04-15T00:34:34.592Z,27.85
2023-04-15T00:35:34.667Z,27.83
2023-04-15T00:36:34.713Z,27.83
2023-04-15T00:37:34.794Z,27.86
2023-04-15T00:38:34.828Z,27.86
2023-04-15T00:39:34.899Z,27.88
2023-04-15T00:40:35.040Z,27.87
2023-04-15T00:41:35.016Z,27.89
2023-04-15T00:42:35.054Z,27.90
2023-04-15T00:43:35.141Z,27.90
2023-04-15T00:44:35.234Z,27.94
2023-04-15T00:45:35.223Z,27.92
2023-04-15T00:46:35.290Z,27.95
2023-04-15T00:47:35.334Z,27.97
2023-04-15T00:48:35.365Z,27.99
2023-04-15T00:49:35.478Z,27.97
2023-04-15T00:50:35.627Z,28.00
2023-04-15T00:51:35.589Z,28.00
2023-04-15T00:52:35.630Z,28.01
2023-04-15T00:53:35.693Z,28.02
2023-04-15T00:54:35.766Z,28.02
2023-04-15T00:55:35.784Z,28.07
2023-04-15T00:56:35.880Z,28.07
2023-04-15T00:57:36.046Z,28.05
2023-04-15T00:58:35.993Z,28.05
2023-04-15T00:59:36.058Z,28.05
2023-04-15T01:00:36.163Z,28.09
2023-04-15T01:01:36.251Z,28.08
2023-04-15T01:02:36.512Z,28.12
2023-04-15T01:03:36.478Z,28.08
2023-04-15T01:04:36.504Z,28.08
2023-04-15T01:05:36.500Z,28.12
2023-04-15T01:06:36.429Z,28.12
2023-04-15T01:07:36.500Z,28.11
2023-04-15T01:08:36.522Z,28.16
2023-04-15T01:09:36.586Z,28.14
2023-04-15T01:10:36.651Z,28.15
2023-04-15T01:11:36.658Z,28.18
2023-04-15T01:12:36.691Z,28.15
2023-04-15T01:13:36.704Z,28.16
2023-04-15T01:14:36.752Z,28.18
2023-04-15T01:15:36.811Z,28.17
2023-04-15T01:16:36.826Z,28.18
2023-04-15T01:17:36.882Z,28.18
2023-04-15T01:18:36.953Z,28.20
2023-04-15T01:19:36.951Z,28.18
2023-04-15T01:20:37.022Z,28.21
2023-04-15T01:21:37.008Z,28.22
2023-04-15T01:22:37.021Z,28.21
2023-04-15T01:23:37.101Z,28.21
2023-04-15T01:24:37.073Z,28.24
2023-04-15T01:25:37.162Z,28.24
2023-04-15T01:26:37.172Z,28.24
2023-04-15T01:27:37.164Z,28.24
2023-04-15T01:28:37.197Z,28.24
2023-04-15T01:29:37.175Z,28.22
2023-04-15T01:30:37.206Z,28.26
2023-04-15T01:31:37.251Z,28.24
2023-04-15T01:32:37.235Z,28.22
2023-04-15T01:33:37.223Z,28.23
2023-04-15T01:34:37.280Z,28.22
2023-04-15T01:35:37.217Z,28.23
2023-04-15T01:36:37.224Z,28.24
2023-04-15T01:37:37.231Z,28.22
2023-04-15T01:38:37.240Z,28.22
2023-04-15T01:39:37.173Z,28.23
2023-04-15T01:40:37.179Z,28.23
2023-04-15T01:41:37.207Z,28.23
2023-04-15T01:42:37.229Z,28.23
2023-04-15T01:43:37.239Z,28.22
2023-04-15T01:44:37.176Z,28.21
2023-04-15T01:45:37.182Z,28.22
2023-04-15T01:46:37.254Z,28.20
2023-04-15T01:47:37.243Z,28.23
2023-04-15T01:48:37.211Z,28.22
2023-04-15T01:49:37.210Z,28.23
2023-04-15T01:50:37.156Z,28.23
2023-04-15T01:51:37.164Z,28.21
2023-04-15T01:52:37.171Z,28.22
2023-04-15T01:53:37.244Z,28.21
2023-04-15T01:54:37.192Z,28.19
2023-04-15T01:55:37.176Z,28.20
2023-04-15T01:56:37.153Z,28.20
2023-04-15T01:57:37.172Z,28.16
2023-04-15T01:58:37.124Z,28.17
2023-04-15T01:59:37.252Z,28.16
2023-04-15T02:00:37.165Z,28.15
2023-04-15T02:01:37.112Z,28.15
2023-04-15T02:02:37.250Z,28.13
2023-04-15T02:03:37.321Z,28.12
2023-04-15T02:04:37.168Z,28.12
2023-04-15T02:05:37.161Z,28.10
2023-04-15T02:06:37.109Z,28.09
2023-04-15T02:07:37.117Z,28.08
2023-04-15T02:08:37.143Z,28.05
2023-04-15T02:09:37.159Z,28.04
2023-04-15T02:10:37.151Z,28.01
2023-04-15T02:11:37.172Z,28.01
2023-04-15T02:12:37.163Z,27.97
2023-04-15T02:13:37.132Z,27.98
2023-04-15T02:14:37.132Z,27.99
2023-04-15T02:15:37.130Z,27.98
2023-04-15T02:16:37.226Z,27.93
2023-04-15T02:17:37.175Z,27.94
2023-04-15T02:18:37.148Z,27.95
2023-04-15T02:19:37.148Z,27.95
2023-04-15T02:20:37.131Z,27.94
2023-04-15T02:21:37.133Z,27.92
2023-04-15T02:22:37.102Z,27.91
2023-04-15T02:23:37.137Z,27.88
2023-04-15T02:24:37.210Z,27.89
2023-04-15T02:25:37.095Z,27.88
2023-04-15T02:26:37.161Z,27.90
2023-04-15T02:27:37.097Z,27.88
2023-04-15T02:28:37.123Z,27.88
2023-04-15T02:29:37.117Z,27.86
2023-04-15T02:30:37.121Z,27.84
2023-04-15T02:31:37.213Z,27.85
2023-04-15T02:32:37.156Z,27.85
2023-04-15T02:33:37.114Z,27.83
2023-04-15T02:34:37.127Z,27.86
2023-04-15T02:35:37.118Z,27.83
2023-04-15T02:36:37.129Z,27.84
2023-04-15T02:37:37.074Z,27.83
2023-04-15T02:38:37.085Z,27.83
2023-04-15T02:39:37.076Z,27.83
2023-04-15T02:40:37.099Z,27.81
2023-04-15T02:41:37.107Z,27.82
2023-04-15T02:42:37.162Z,27.81
2023-04-15T02:43:37.172Z,27.80
2023-04-15T02:44:37.172Z,27.80
2023-04-15T02:45:37.200Z,27.83
2023-04-15T02:46:37.138Z,27.82
2023-04-15T02:47:37.238Z,27.82
2023-04-15T02:48:37.147Z,27.81
2023-04-15T02:49:37.215Z,27.80
2023-04-15T02:50:37.180Z,27.79
2023-04-15T02:51:37.264Z,27.78
2023-04-15T02:52:37.228Z,27.79
2023-04-15T02:53:37.242Z,27.81
2023-04-15T02:54:37.286Z,27.78
2023-04-15T02:55:37.275Z,27.79
2023-04-15T02:56:37.258Z,27.82
2023-04-15T02:57:37.273Z,27.79
2023-04-15T02:58:37.269Z,27.79
2023-04-15T02:59:37.271Z,27.76
2023-04-15T03:00:37.285Z,27.77
2023-04-15T03:01:37.275Z,27.75
2023-04-15T03:02:37.337Z,27.76
2023-04-15T03:03:37.353Z,27.75
2023-04-15T03:04:37.303Z,27.75
2023-04-15T03:05:37.270Z,27.76
2023-04-15T03:06:37.275Z,27.75
2023-04-15T03:07:37.287Z,27.77
2023-04-15T03:08:37.368Z,27.77
2023-04-15T03:09:37.294Z,27.77
2023-04-15T03:10:37.355Z,27.77
2023-04-15T03:11:37.359Z,27.74
2023-04-15T03:12:37.317Z,27.73
2023-04-15T03:13:37.367Z,27.73
2023-04-15T03:14:37.329Z,27.72
2023-04-15T03:15:37.408Z,27.69
2023-04-15T03:16:37.383Z,27.67
2023-04-15T03:17:37.449Z,27.65
2023-04-15T03:18:37.427Z,27.65
2023-04-15T03:19:37.453Z,27.65
2023-04-15T03:20:37.464Z,27.61
2023-04-15T03:21:37.433Z,27.59
2023-04-15T03:22:37.429Z,27.56
2023-04-15T03:23:37.435Z,27.55
2023-04-15T03:24:37.444Z,27.53
2023-04-15T03:25:37.438Z,27.52
2023-04-15T03:26:37.487Z,27.47
2023-04-15T03:27:37.412Z,27.44
2023-04-15T03:28:37.428Z,27.43
2023-04-15T03:29:37.426Z,27.43
2023-04-15T03:30:37.401Z,27.42
2023-04-15T03:31:37.438Z,27.38
2023-04-15T03:32:37.418Z,27.34
2023-04-15T03:33:37.397Z,27.33
2023-04-15T03:34:37.399Z,27.30
2023-04-15T03:35:37.373Z,27.31
2023-04-15T03:36:37.439Z,27.27
2023-04-15T03:37:37.392Z,27.25
2023-04-15T03:38:37.389Z,27.25
2023-04-15T03:39:37.381Z,27.25
2023-04-15T03:40:37.388Z,27.24
2023-04-15T03:41:37.393Z,27.24
2023-04-15T03:42:37.392Z,27.23
2023-04-15T03:43:37.413Z,27.21
2023-04-15T03:44:37.443Z,27.19
2023-04-15T03:45:37.372Z,27.19
2023-04-15T03:46:37.410Z,27.19
2023-04-15T03:47:37.472Z,27.19
2023-04-15T03:48:37.444Z,27.20
2023-04-15T03:49:37.433Z,27.20
2023-04-15T03:50:37.460Z,27.19
2023-04-15T03:51:37.472Z,27.21
2023-04-15T03:52:37.452Z,27.21
2023-04-15T03:53:37.465Z,27.20
2023-04-15T03:54:37.492Z,27.17
2023-04-15T03:55:37.489Z,27.20
2023-04-15T03:56:37.501Z,27.20
2023-04-15T03:57:37.460Z,27.18
2023-04-15T03:58:37.472Z,27.17
2023-04-15T03:59:37.472Z,27.18
2023-04-15T04:00:37.481Z,27.17
2023-04-15T04:01:37.501Z,27.16
2023-04-15T04:02:37.650Z,27.17
2023-04-15T04:03:37.598Z,27.14
2023-04-15T04:04:37.585Z,27.12
2023-04-15T04:05:37.845Z,27.13
2023-04-15T04:06:37.516Z,27.13
2023-04-15T04:07:37.552Z,27.13
2023-04-15T04:08:37.542Z,27.14
2023-04-15T04:09:37.544Z,27.13
2023-04-15T04:10:37.538Z,27.15
2023-04-15T04:11:37.628Z,27.16
2023-04-15T04:12:37.613Z,27.16
2023-04-15T04:13:37.628Z,27.16
2023-04-15T04:14:37.697Z,27.17
2023-04-15T04:15:37.766Z,27.21
2023-04-15T04:16:37.692Z,27.20
2023-04-15T04:17:37.700Z,27.19
2023-04-15T04:18:37.640Z,27.20
2023-04-15T04:19:37.652Z,27.20
2023-04-15T04:20:37.669Z,27.22
2023-04-15T04:21:37.661Z,27.23
2023-04-15T04:22:37.676Z,27.23
2023-04-15T04:23:37.675Z,27.20
2023-04-15T04:24:37.639Z,27.22
2023-04-15T04:25:37.713Z,27.25
2023-04-15T04:26:37.661Z,27.21
2023-04-15T04:27:37.669Z,27.17
2023-04-15T04:28:37.677Z,27.17
2023-04-15T04:29:37.685Z,27.16
2023-04-15T04:30:37.682Z,27.15
2023-04-15T04:31:37.741Z,27.14
2023-04-15T04:32:37.745Z,27.12
2023-04-15T04:33:37.665Z,27.11
2023-04-15T04:34:37.679Z,27.09
2023-04-15T04:35:37.751Z,27.08
2023-04-15T04:36:37.728Z,27.07
2023-04-15T04:37:37.682Z,27.04
2023-04-15T04:38:37.701Z,27.03
2023-04-15T04:39:37.696Z,27.04
2023-04-15T04:40:37.712Z,27.01
2023-04-15T04:41:37.675Z,27.02
2023-04-15T04:42:39.849Z,27.01
2023-04-15T04:43:37.771Z,27.02
2023-04-15T04:44:37.696Z,26.98
2023-04-15T04:45:37.737Z,26.96
2023-04-15T04:46:37.749Z,26.96
2023-04-15T04:47:37.788Z,26.95
2023-04-15T04:48:37.737Z,26.96
2023-04-15T04:49:37.753Z,26.93
2023-04-15T04:50:37.738Z,26.93
2023-04-15T04:51:37.754Z,26.95
2023-04-15T04:52:37.790Z,26.94
2023-04-15T04:53:37.775Z,26.93
2023-04-15T04:54:37.791Z,26.96
2023-04-15T04:55:37.784Z,26.95
2023-04-15T04:56:37.799Z,26.93
2023-04-15T04:57:37.808Z,26.95
2023-04-15T04:58:37.821Z,26.96
2023-04-15T04:59:37.807Z,26.97
2023-04-15T05:00:37.850Z,26.95
2023-04-15T05:01:37.890Z,26.95
2023-04-15T05:02:37.900Z,26.93
2023-04-15T05:03:37.976Z,26.94
2023-04-15T05:04:37.840Z,26.94
2023-04-15T05:05:37.847Z,26.94
2023-04-15T05:06:37.864Z,26.89
2023-04-15T05:07:37.875Z,26.87
2023-04-15T05:09:37.867Z,26.83
2023-04-15T05:10:37.899Z,26.77
2023-04-15T05:11:37.908Z,26.76
2023-04-15T05:12:37.905Z,26.72
2023-04-15T05:13:37.934Z,26.69
2023-04-15T05:14:37.918Z,26.67
2023-04-15T05:15:38.006Z,26.62
2023-04-15T05:16:37.963Z,26.61
2023-04-15T05:17:38.020Z,26.61
2023-04-15T05:18:38.012Z,26.58
2023-04-15T05:19:37.974Z,26.54
2023-04-15T05:20:38.023Z,26.49
2023-04-15T05:21:39.407Z,26.47
2023-04-15T05:22:38.042Z,26.47
2023-04-15T05:23:38.036Z,26.42
2023-04-15T05:24:38.095Z,26.40
2023-04-15T05:25:38.101Z,26.37
2023-04-15T05:26:38.107Z,26.30
2023-04-15T05:27:38.126Z,26.25
2023-04-15T05:28:38.119Z,26.17
2023-04-15T05:29:38.180Z,26.14
2023-04-15T05:30:38.151Z,26.13
2023-04-15T05:31:38.274Z,26.08
2023-04-15T05:32:38.213Z,26.04
2023-04-15T05:33:38.218Z,26.00
2023-04-15T05:34:38.238Z,25.99
2023-04-15T05:35:38.247Z,26.00
2023-04-15T05:36:38.284Z,25.98
2023-04-15T05:37:38.234Z,25.98
2023-04-15T05:38:38.280Z,25.97
2023-04-15T05:39:38.290Z,25.98
2023-04-15T05:40:38.317Z,25.99
2023-04-15T05:41:38.318Z,26.02
2023-04-15T05:42:38.328Z,26.00
2023-04-15T05:43:38.300Z,26.03
2023-04-15T05:44:38.336Z,26.05
2023-04-15T05:45:38.411Z,26.06
2023-04-15T05:46:38.465Z,26.10
2023-04-15T05:47:38.402Z,26.09
2023-04-15T05:48:38.378Z,26.06
2023-04-15T05:49:38.368Z,26.11
2023-04-15T05:50:38.410Z,26.08
2023-04-15T05:51:38.464Z,26.11
2023-04-15T05:52:38.450Z,26.11
2023-04-15T05:53:38.450Z,26.09
2023-04-15T05:54:38.968Z,26.11
2023-04-15T05:55:38.465Z,26.12
2023-04-15T05:56:38.477Z,26.12
2023-04-15T05:57:38.522Z,26.12
2023-04-15T05:58:38.512Z,26.13
2023-04-15T05:59:38.529Z,26.10
2023-04-15T06:00:38.542Z,26.09
2023-04-15T06:01:38.546Z,26.09
2023-04-15T06:02:38.665Z,26.05
2023-04-15T06:03:38.760Z,26.03
2023-04-15T06:04:38.849Z,25.99
2023-04-15T06:05:38.600Z,25.91
2023-04-15T06:06:38.666Z,25.90
2023-04-15T06:07:38.645Z,25.87
2023-04-15T06:08:38.694Z,25.81
2023-04-15T06:09:38.693Z,25.83
2023-04-15T06:10:38.709Z,25.78
2023-04-15T06:11:38.725Z,25.80
2023-04-15T06:12:38.737Z,25.80
2023-04-15T06:13:38.788Z,25.79
2023-04-15T06:14:38.802Z,25.81
2023-04-15T06:15:38.845Z,25.81
2023-04-15T06:16:38.953Z,25.84
2023-04-15T06:17:38.920Z,25.81
2023-04-15T06:18:38.944Z,25.82
2023-04-15T06:19:38.980Z,25.82
2023-04-15T06:20:38.984Z,25.79
2023-04-15T06:21:39.011Z,25.78
2023-04-15T06:22:39.058Z,25.77
2023-04-15T06:23:39.066Z,25.75
2023-04-15T06:24:39.167Z,25.72
2023-04-15T06:25:39.896Z,25.71
2023-04-15T06:26:39.188Z,25.74
2023-04-15T06:27:39.192Z,25.70
2023-04-15T06:28:39.232Z,25.66
2023-04-15T06:29:39.244Z,25.62
2023-04-15T06:30:39.262Z,25.53
2023-04-15T06:31:39.455Z,25.48
2023-04-15T06:32:39.339Z,25.43
2023-04-15T06:33:39.367Z,25.41
2023-04-15T06:34:39.385Z,25.37
2023-04-15T06:35:39.448Z,25.34
2023-04-15T06:36:39.459Z,25.34
2023-04-15T06:37:39.479Z,25.35
2023-04-15T06:38:39.516Z,25.35
2023-04-15T06:39:39.530Z,25.37
2023-04-15T06:40:39.516Z,25.41
2023-04-15T06:41:39.593Z,25.43
2023-04-15T06:42:39.622Z,25.45
2023-04-15T06:43:39.619Z,25.48
2023-04-15T06:44:39.643Z,25.53
2023-04-15T06:45:39.669Z,25.54
2023-04-15T06:46:39.733Z,25.54
2023-04-15T06:47:39.730Z,25.49
2023-04-15T06:48:39.738Z,25.45
2023-04-15T06:49:39.761Z,25.38
2023-04-15T06:50:39.795Z,25.36
2023-04-15T06:51:39.809Z,25.36
2023-04-15T06:52:39.786Z,25.29
2023-04-15T06:53:39.818Z,25.25
2023-04-15T06:54:39.882Z,25.23
2023-04-15T06:55:39.890Z,25.17
2023-04-15T06:56:39.901Z,25.10
2023-04-15T06:57:39.934Z,25.06
2023-04-15T06:58:39.948Z,25.00
2023-04-15T06:59:40.027Z,24.89
2023-04-15T07:00:40.001Z,24.81
2023-04-15T07:01:40.044Z,24.71
2023-04-15T07:02:40.186Z,24.63
2023-04-15T07:03:40.084Z,24.58
2023-04-15T07:04:40.272Z,24.56
2023-04-15T07:05:40.138Z,24.51
2023-04-15T07:06:40.113Z,24.46
2023-04-15T07:07:40.149Z,24.40
2023-04-15T07:08:40.146Z,24.41
2023-04-15T07:09:40.218Z,24.43
2023-04-15T07:10:40.211Z,24.38
2023-04-15T07:11:40.237Z,24.35
2023-04-15T07:12:40.200Z,24.32
2023-04-15T07:13:40.260Z,24.27
2023-04-15T07:14:40.255Z,24.21
2023-04-15T07:15:40.265Z,24.13
2023-04-15T07:16:40.320Z,24.06
2023-04-15T07:17:40.320Z,23.99
2023-04-15T07:18:40.283Z,23.97
2023-04-15T07:19:40.294Z,23.88
2023-04-15T07:20:40.336Z,23.81
2023-04-15T07:21:41.843Z,23.75
2023-04-15T07:22:40.335Z,23.65
2023-04-15T07:23:40.406Z,23.56
2023-04-15T07:24:40.307Z,23.49
2023-04-15T07:25:40.298Z,23.38
2023-04-15T07:26:40.325Z,23.35
2023-04-15T07:27:40.316Z,23.32
2023-04-15T07:28:40.318Z,23.25
2023-04-15T07:29:40.364Z,23.19
2023-04-15T07:30:40.534Z,23.15
2023-04-15T07:31:40.352Z,23.08
2023-04-15T07:32:40.465Z,23.01
2023-04-15T07:33:40.403Z,22.99
2023-04-15T07:34:40.437Z,22.98
2023-04-15T07:35:40.363Z,22.95
2023-04-15T07:36:40.377Z,22.94
2023-04-15T07:37:40.348Z,22.88
2023-04-15T07:38:40.302Z,22.87
2023-04-15T07:39:40.338Z,22.84
2023-04-15T07:40:40.330Z,22.83
2023-04-15T07:41:40.327Z,22.77
2023-04-15T07:42:41.385Z,22.78
2023-04-15T07:43:40.317Z,22.77
2023-04-15T07:44:40.319Z,22.78
2023-04-15T07:45:40.298Z,22.79
2023-04-15T07:46:40.350Z,22.78
2023-04-15T07:47:40.387Z,22.74
2023-04-15T07:48:40.385Z,22.75
2023-04-15T07:49:40.406Z,22.71
2023-04-15T07:50:40.419Z,22.73
2023-04-15T07:51:40.420Z,22.71
2023-04-15T07:52:40.579Z,22.72
2023-04-15T07:53:40.510Z,22.66
2023-04-15T07:54:40.538Z,22.65
2023-04-15T07:55:40.603Z,22.65
2023-04-15T07:56:40.654Z,22.63
2023-04-15T07:57:40.668Z,22.63
2023-04-15T07:58:40.689Z,22.61
2023-04-15T07:59:40.784Z,22.58
2023-04-15T08:00:40.861Z,22.57
2023-04-15T08:01:40.862Z,22.52
2023-04-15T08:02:41.220Z,22.50
2023-04-15T08:03:41.086Z,22.43
2023-04-15T08:04:41.297Z,22.41
2023-04-15T08:05:41.137Z,22.39
2023-04-15T08:06:41.251Z,22.34
2023-04-15T08:07:41.262Z,22.34
2023-04-15T08:08:41.359Z,22.33
2023-04-15T08:09:41.430Z,22.29
2023-04-15T08:10:41.440Z,22.30
2023-04-15T08:11:41.484Z,22.29
2023-04-15T08:12:41.542Z,22.30
2023-04-15T08:13:41.596Z,22.31
2023-04-15T08:14:41.658Z,22.34
2023-04-15T08:15:41.728Z,22.30
2023-04-15T08:16:41.801Z,22.36
2023-04-15T08:17:41.798Z,22.40
2023-04-15T08:18:41.855Z,22.41
2023-04-15T08:19:41.902Z,22.43
2023-04-15T08:20:41.943Z,22.43
2023-04-15T08:21:42.017Z,22.43
2023-04-15T08:22:42.140Z,22.45
2023-04-15T08:23:42.125Z,22.47
2023-04-15T08:24:42.077Z,22.48
2023-04-15T08:25:42.141Z,22.48
2023-04-15T08:26:42.180Z,22.47
2023-04-15T08:27:42.196Z,22.45
2023-04-15T08:28:42.246Z,22.47
2023-04-15T08:29:42.302Z,22.49
2023-04-15T08:30:42.313Z,22.54
2023-04-15T08:31:42.371Z,22.46
2023-04-15T08:32:42.381Z,22.43
2023-04-15T08:33:42.394Z,22.44
2023-04-15T08:34:42.418Z,22.38
2023-04-15T08:35:42.433Z,22.35
2023-04-15T08:36:42.528Z,22.35
2023-04-15T08:37:42.509Z,22.33
2023-04-15T08:38:42.538Z,22.31
2023-04-15T08:39:42.534Z,22.32
2023-04-15T08:40:42.660Z,22.32
2023-04-15T08:41:42.583Z,22.34
2023-04-15T08:42:43.653Z,22.31
2023-04-15T08:43:42.636Z,22.31
2023-04-15T08:44:42.688Z,22.32
2023-04-15T08:45:42.728Z,22.34
2023-04-15T08:46:42.770Z,22.37
2023-04-15T08:47:42.765Z,22.41
2023-04-15T08:48:42.792Z,22.42
2023-04-15T08:49:42.814Z,22.43
2023-04-15T08:50:42.819Z,22.42
2023-04-15T08:51:42.867Z,22.49
2023-04-15T08:52:42.871Z,22.51
2023-04-15T08:53:42.878Z,22.53
2023-04-15T08:54:42.909Z,22.53
2023-04-15T08:55:42.897Z,22.55
2023-04-15T08:56:42.973Z,22.55
2023-04-15T08:57:42.954Z,22.58
2023-04-15T08:58:42.972Z,22.63
2023-04-15T08:59:43.002Z,22.65
2023-04-15T09:00:42.983Z,22.67
2023-04-15T09:01:43.188Z,22.66
2023-04-15T09:02:43.300Z,22.70
2023-04-15T09:03:43.169Z,22.71
2023-04-15T09:04:43.041Z,22.71
2023-04-15T09:05:43.053Z,22.70
2023-04-15T09:06:43.077Z,22.72
2023-04-15T09:07:43.097Z,22.71
2023-04-15T09:08:43.068Z,22.74
2023-04-15T09:09:43.098Z,22.74
2023-04-15T09:10:43.101Z,22.76
2023-04-15T09:11:43.156Z,22.76
2023-04-15T09:12:43.170Z,22.75
2023-04-15T09:13:43.224Z,22.73
2023-04-15T09:14:43.144Z,22.76
2023-04-15T09:15:43.195Z,22.74
2023-04-15T09:16:43.230Z,22.71
2023-04-15T09:17:43.235Z,22.66
2023-04-15T09:18:43.211Z,22.67
2023-04-15T09:19:43.246Z,22.61
2023-04-15T09:20:43.235Z,22.63
2023-04-15T09:21:43.263Z,22.59
2023-04-15T09:22:43.236Z,22.58
2023-04-15T09:23:43.266Z,22.58
2023-04-15T09:24:43.263Z,22.58
2023-04-15T09:25:43.222Z,22.63
2023-04-15T09:26:43.256Z,22.62
2023-04-15T09:27:43.207Z,22.75
2023-04-15T09:28:43.244Z,22.78
2023-04-15T09:29:43.233Z,22.80
2023-04-15T09:30:43.269Z,22.81
2023-04-15T09:31:43.225Z,22.83
2023-04-15T09:32:43.280Z,22.81
2023-04-15T09:33:43.243Z,22.84
2023-04-15T09:34:43.236Z,22.87
2023-04-15T09:35:43.341Z,22.84
2023-04-15T09:36:43.348Z,22.90
2023-04-15T09:37:43.401Z,22.91
2023-04-15T09:38:43.505Z,22.91
2023-04-15T09:39:43.522Z,22.92
2023-04-15T09:40:43.632Z,22.91
2023-04-15T09:41:43.670Z,22.87
2023-04-15T09:42:43.728Z,22.88
2023-04-15T09:43:43.774Z,22.90
2023-04-15T09:44:43.843Z,22.86
2023-04-15T09:45:44.002Z,22.78
2023-04-15T09:46:43.971Z,22.83
2023-04-15T09:47:44.045Z,22.80
2023-04-15T09:48:44.042Z,22.84
2023-04-15T09:49:44.175Z,22.79
2023-04-15T09:50:44.257Z,22.83
2023-04-15T09:51:51.165Z,22.71
2023-04-15T09:52:45.234Z,22.73
2023-04-15T09:53:44.273Z,22.68
2023-04-15T09:54:44.210Z,22.75
2023-04-15T09:55:44.218Z,22.73
2023-04-15T09:56:44.233Z,22.77
2023-04-15T09:57:44.241Z,22.76
2023-04-15T09:58:44.191Z,22.75
2023-04-15T09:59:44.167Z,22.71
2023-04-15T10:00:44.184Z,22.76
2023-04-15T10:01:44.201Z,22.75
2023-04-15T10:02:44.331Z,22.74
2023-04-15T10:03:44.309Z,22.77
2023-04-15T10:04:44.328Z,22.75
2023-04-15T10:05:44.376Z,22.71
2023-04-15T10:06:44.429Z,22.73
2023-04-15T10:07:44.467Z,22.78
2023-04-15T10:08:44.520Z,22.81
2023-04-15T10:09:44.555Z,22.82
2023-04-15T10:10:44.586Z,22.84
2023-04-15T10:11:44.632Z,22.79
2023-04-15T10:12:44.696Z,22.81
2023-04-15T10:13:44.830Z,22.82
2023-04-15T10:14:44.740Z,22.77
2023-04-15T10:15:44.832Z,22.78
2023-04-15T10:16:44.896Z,22.83
2023-04-15T10:17:44.915Z,22.79
2023-04-15T10:18:44.945Z,22.72
2023-04-15T10:19:44.965Z,22.72
2023-04-15T10:20:44.954Z,22.82
2023-04-15T10:21:45.001Z,22.75
2023-04-15T10:22:45.070Z,22.74
2023-04-15T10:23:45.038Z,22.69
2023-04-15T10:24:45.047Z,22.64
2023-04-15T10:25:45.098Z,22.62
2023-04-15T10:26:45.156Z,22.58
2023-04-15T10:27:45.136Z,22.52
2023-04-15T10:28:45.171Z,22.47
2023-04-15T10:29:45.224Z,22.51
2023-04-15T10:30:45.190Z,22.51
2023-04-15T10:31:45.274Z,22.49
2023-04-15T10:32:45.369Z,22.53
2023-04-15T10:33:45.265Z,22.47
2023-04-15T10:34:45.293Z,22.52
2023-04-15T10:35:45.284Z,22.47
2023-04-15T10:36:45.305Z,22.47
2023-04-15T10:37:45.351Z,22.47
2023-04-15T10:38:45.424Z,22.51
2023-04-15T10:39:45.402Z,22.49
2023-04-15T10:40:45.381Z,22.55
2023-04-15T10:41:45.413Z,22.54
2023-04-15T10:42:45.381Z,22.60
2023-04-15T10:43:45.418Z,22.55
2023-04-15T10:44:45.419Z,22.62
2023-04-15T10:45:45.490Z,22.65
2023-04-15T10:46:45.471Z,22.65
2023-04-15T10:47:45.435Z,22.61
2023-04-15T10:48:45.420Z,22.70
2023-04-15T10:49:45.425Z,22.71
2023-04-15T10:50:45.389Z,22.67
2023-04-15T10:51:45.433Z,22.67
2023-04-15T10:52:45.384Z,22.68
2023-04-15T10:53:45.375Z,22.79
2023-04-15T10:54:45.397Z,22.71
2023-04-15T10:55:45.369Z,22.74
2023-04-15T10:56:45.370Z,22.69
2023-04-15T10:57:45.427Z,22.72
2023-04-15T10:58:45.417Z,22.77
2023-04-15T10:59:45.346Z,22.73
2023-04-15T11:00:45.357Z,22.70
2023-04-15T11:01:45.401Z,22.70
2023-04-15T11:02:45.503Z,22.75
2023-04-15T11:03:45.546Z,22.75
2023-04-15T11:04:45.402Z,22.70
2023-04-15T11:05:45.363Z,22.73
2023-04-15T11:06:45.404Z,22.73
2023-04-15T11:07:45.373Z,22.76
2023-04-15T11:08:45.396Z,22.76
2023-04-15T11:09:45.381Z,22.76
2023-04-15T11:10:45.402Z,22.67
2023-04-15T11:11:46.396Z,22.68
2023-04-15T11:12:45.368Z,22.70
2023-04-15T11:13:45.345Z,22.71
2023-04-15T11:14:45.339Z,22.75
2023-04-15T11:15:45.407Z,22.71
2023-04-15T11:16:45.388Z,22.65
2023-04-15T11:17:46.485Z,22.73
2023-04-15T11:18:45.420Z,22.71
2023-04-15T11:19:45.455Z,22.69
2023-04-15T11:20:45.455Z,22.74
2023-04-15T11:21:45.469Z,22.76
2023-04-15T11:22:45.545Z,22.73
2023-04-15T11:23:45.580Z,22.66
2023-04-15T11:24:45.700Z,22.74
2023-04-15T11:25:45.696Z,22.72
2023-04-15T11:26:45.774Z,22.73
2023-04-15T11:27:45.827Z,22.69
2023-04-15T11:28:45.911Z,22.66
2023-04-15T11:29:45.947Z,22.60
2023-04-15T11:30:45.998Z,22.62
2023-04-15T11:31:46.064Z,22.58
2023-04-15T11:32:46.197Z,22.56
2023-04-15T11:33:46.158Z,22.70
2023-04-15T11:34:46.210Z,22.61
2023-04-15T11:35:46.391Z,22.65
2023-04-15T11:36:46.330Z,22.59
2023-04-15T11:37:46.363Z,22.59
2023-04-15T11:38:46.445Z,22.56
2023-04-15T11:39:46.520Z,22.57
2023-04-15T11:40:47.318Z,22.58
2023-04-15T11:41:46.570Z,22.51
2023-04-15T11:42:50.015Z,22.52
2023-04-15T11:43:46.602Z,22.51
2023-04-15T11:44:46.575Z,22.54
2023-04-15T11:45:46.609Z,22.56
2023-04-15T11:46:46.610Z,22.56
2023-04-15T11:47:46.612Z,22.59
2023-04-15T11:48:46.659Z,22.56
2023-04-15T11:49:46.529Z,22.59
2023-04-15T11:50:46.561Z,22.61
2023-04-15T11:51:46.561Z,22.63
2023-04-15T11:52:46.622Z,22.64
2023-04-15T11:53:46.553Z,22.61
2023-04-15T11:54:46.521Z,22.63
2023-04-15T11:55:46.516Z,22.66
2023-04-15T11:56:46.477Z,22.63
2023-04-15T11:57:46.537Z,22.63
2023-04-15T11:58:46.667Z,22.61
2023-04-15T11:59:46.486Z,22.62
2023-04-15T12:00:46.507Z,22.60
2023-04-15T12:01:46.497Z,22.57
2023-04-15T12:02:46.644Z,22.56
2023-04-15T12:03:46.573Z,22.54
2023-04-15T12:04:46.525Z,22.53
2023-04-15T12:05:46.441Z,22.52
2023-04-15T12:06:46.427Z,22.55
2023-04-15T12:07:46.423Z,22.51
2023-04-15T12:08:46.409Z,22.48
2023-04-15T12:09:46.416Z,22.45
2023-04-15T12:10:46.410Z,22.43
2023-04-15T12:11:46.424Z,22.40
2023-04-15T12:12:46.395Z,22.39
2023-04-15T12:13:46.367Z,22.41
2023-04-15T12:14:46.469Z,22.44
2023-04-15T12:15:46.402Z,22.41
2023-04-15T12:16:48.505Z,22.42
2023-04-15T12:17:51.448Z,22.41
2023-04-15T12:18:47.354Z,22.47
2023-04-15T12:19:46.351Z,22.41
2023-04-15T12:20:46.345Z,22.40
2023-04-15T12:21:46.316Z,22.39
2023-04-15T12:22:46.316Z,22.42
2023-04-15T12:23:46.345Z,22.38
2023-04-15T12:24:46.303Z,22.39
2023-04-15T12:25:46.315Z,22.36
2023-04-15T12:26:46.339Z,22.34
2023-04-15T12:27:46.323Z,22.30
2023-04-15T12:28:46.269Z,22.28
2023-04-15T12:29:46.256Z,22.27
2023-04-15T12:30:46.355Z,22.24
2023-04-15T12:31:46.423Z,22.24
2023-04-15T12:32:46.434Z,22.20
2023-04-15T12:33:46.402Z,22.22
2023-04-15T12:34:46.434Z,22.21
2023-04-15T12:35:46.559Z,22.17
2023-04-15T12:36:46.563Z,22.19
2023-04-15T12:37:46.565Z,22.15
2023-04-15T12:38:46.619Z,22.16
2023-04-15T12:39:46.640Z,22.12
2023-04-15T12:40:46.717Z,22.07
2023-04-15T12:41:46.730Z,22.07
2023-04-15T12:42:46.818Z,22.06
2023-04-15T12:43:46.865Z,22.01
2023-04-15T12:44:46.860Z,21.98
2023-04-15T12:45:46.903Z,22.03
2023-04-15T12:46:46.950Z,22.00
2023-04-15T12:47:47.112Z,21.98
2023-04-15T12:48:47.097Z,21.95
2023-04-15T12:49:47.105Z,21.97
2023-04-15T12:50:47.145Z,21.95
2023-04-15T12:51:47.187Z,21.99
2023-04-15T12:52:47.212Z,22.00
2023-04-15T12:53:47.353Z,22.00